Terminal Aerodrome Forecast
Issued by NWS

Home | Current Version | Previous Version | Text Only | Print | Product List | Glossary On
Versions: 1 2 3 4 5 6 7 8 9 10 11 12 13 14 15 16 17 18 19 20 21 22 23
000
FTUS45 KVEF 212000 AAB
TAFVGT
TAF AMD
KVGT 212014Z 2120/2218 14014G22KT P6SM VCTS SCT100CB SCT150
     FM212100 14014G22KT P6SM VCTS SCT100CB
      TEMPO 2122/2202 VRB15G25KT -TSRA BKN090CB
     FM220300 16008KT P6SM SCT110=

USA.gov is the U.S. government's official web portal to all federal, state and local government web resources and services.